River Corners, Ohio
Current Conditions -  °F | °C
As of 10:53 AM on Friday 31 Oct 2014 (Local Time) from KLPR Reporting Station
Overcast Overcast  
Wind Chill: 40°   Ceiling: 4300
Heat Index: 45°   Visibility: 10mi
Dew Point: 36°   Wind: 9mph
Humidity: 71%   Direction: 200°SSW
Pressure: 29.91"   Gusts: NA
Location:  41.1001°N, 82.0965°W
Report Text: KLPR 311453Z AUTO 20008KT 10SM OVC043 07/02 A2991 RMK AO2 SLP131 T00720022 58010 TSNO
Loading
Personal Weather Stations






























Interactive Weather Map
Tropical Storm Tracking
New forecast layout! Learn more

10-Day Weather Forecast

Advertisements
Track Severe Weather on mobile